Time;durP1;ratioP1;P1;durP2;ratioP2;P2;SDS_P1;SDS_P2;PMS_P1;PMS_P2;Temp;Humidity;BMP_temperature;BMP_pressure;BME280_temperature;BME280_humidity;BME280_pressure;Samples;Min_cycle;Max_cycle;Signal;HPM_P1;HPM_P2
2022/06/30 00:01:33;;;;;;;7.80;4.25;;;20.90;99.90;;;;;;5091310;28;20121;-56
2022/06/30 00:03:59;;;;;;;8.80;4.10;;;21.20;99.90;;;;;;5091377;28;20469;-56
2022/06/30 00:06:25;;;;;;;6.20;3.97;;;20.60;99.90;;;;;;5091670;28;20578;-56
2022/06/30 00:08:52;;;;;;;6.50;4.30;;;20.70;99.90;;;;;;5091687;28;20075;-56
2022/06/30 00:11:18;;;;;;;8.55;4.50;;;20.60;99.90;;;;;;5091449;28;20040;-56
2022/06/30 00:13:44;;;;;;;10.23;4.32;;;20.60;99.90;;;;;;5073730;28;20494;-57
2022/06/30 00:16:10;;;;;;;7.20;4.20;;;20.50;99.90;;;;;;5091296;28;20089;-56
2022/06/30 00:18:36;;;;;;;7.60;4.40;;;20.50;99.90;;;;;;5091676;28;20040;-56
2022/06/30 00:21:02;;;;;;;7.68;4.38;;;20.40;99.90;;;;;;5095047;28;20048;-56
2022/06/30 00:23:28;;;;;;;6.05;4.10;;;20.40;99.90;;;;;;5095550;28;20055;-57
2022/06/30 00:25:54;;;;;;;8.60;4.10;;;20.30;99.90;;;;;;5095472;28;20044;-57
2022/06/30 00:28:20;;;;;;;6.10;4.00;;;20.30;99.90;;;;;;5095746;28;20403;-56
2022/06/30 00:30:47;;;;;;;6.97;3.92;;;20.20;99.90;;;;;;5095779;28;20418;-56
2022/06/30 00:33:13;;;;;;;7.18;4.22;;;20.20;99.90;;;;;;5095595;28;20048;-56
2022/06/30 00:35:39;;;;;;;5.07;3.70;;;20.80;99.90;;;;;;5095614;28;20119;-56
2022/06/30 00:38:04;;;;;;;5.75;4.00;;;20.00;99.90;;;;;;5095633;28;20133;-56
2022/06/30 00:40:41;;;;;;;9.10;4.00;;;20.00;99.90;;;;;;5095393;28;20548;-56
2022/06/30 00:43:06;;;;;;;8.40;3.90;;;20.00;99.90;;;;;;5095156;28;20132;-56
2022/06/30 00:45:32;;;;;;;8.05;4.38;;;19.90;99.90;;;;;;5095314;28;20095;-57
2022/06/30 00:47:59;;;;;;;5.88;4.15;;;20.20;99.90;;;;;;5095108;28;20121;-56
2022/06/30 00:50:26;;;;;;;5.22;4.10;;;19.90;99.90;;;;;;5094980;28;20040;-56
2022/06/30 00:52:52;;;;;;;7.47;3.75;;;19.80;99.90;;;;;;5095098;28;20101;-56
2022/06/30 00:55:19;;;;;;;6.85;4.47;;;19.80;99.90;;;;;;5094928;28;20040;-56
2022/06/30 00:57:45;;;;;;;8.00;4.03;;;19.70;99.90;;;;;;5094795;28;20176;-56
2022/06/30 01:01:01;;;;;;;9.13;4.30;;;19.60;99.90;;;;;;5105608;22;20075;-65
2022/06/30 01:03:28;;;;;;;10.65;3.83;;;19.60;99.90;;;;;;5043807;28;20068;-66
2022/06/30 01:05:54;;;;;;;4.82;3.88;;;19.60;99.90;;;;;;5033135;28;20183;-67
2022/06/30 01:08:21;;;;;;;8.20;4.00;;;19.60;99.90;;;;;;5034312;28;20141;-66
2022/06/30 01:13:31;;;;;;;11.40;4.55;;;19.10;99.90;;;;;;5035073;28;20042;-66
2022/06/30 01:15:57;;;;;;;8.13;4.68;;;19.20;99.90;;;;;;5016696;28;20057;-66
2022/06/30 01:18:22;;;;;;;6.05;3.92;;;18.90;99.90;;;;;;5034300;28;20041;-66
2022/06/30 01:20:48;;;;;;;8.45;4.47;;;19.10;99.90;;;;;;5034154;28;20111;-66
2022/06/30 01:23:14;;;;;;;17.52;4.28;;;;;;;;;;5034328;28;20124;-66
2022/06/30 01:25:40;;;;;;;7.82;4.32;;;19.40;99.90;;;;;;5034125;28;20046;-66
2022/06/30 01:28:05;;;;;;;10.07;4.35;;;18.90;99.90;;;;;;5034266;28;20041;-65
2022/06/30 01:30:31;;;;;;;8.55;4.50;;;20.10;99.90;;;;;;5033466;28;20068;-66
2022/06/30 01:32:57;;;;;;;8.50;4.47;;;19.30;99.90;;;;;;5033683;28;20551;-66
2022/06/30 01:35:23;;;;;;;5.63;4.20;;;19.10;99.90;;;;;;5028006;28;20049;-66
2022/06/30 01:37:55;;;;;;;5.68;4.20;;;19.30;99.90;;;;;;5035909;28;20053;-66
2022/06/30 01:40:22;;;;;;;5.85;4.38;;;19.30;99.90;;;;;;5035748;28;20135;-67
2022/06/30 01:42:48;;;;;;;9.02;4.40;;;19.20;99.90;;;;;;5053466;28;20053;-66
2022/06/30 01:45:14;;;;;;;8.25;4.55;;;20.00;99.90;;;;;;5053751;28;20048;-66
2022/06/30 01:47:41;;;;;;;6.28;4.43;;;19.10;99.90;;;;;;5053440;28;20045;-66
2022/06/30 01:50:12;;;;;;;7.53;4.30;;;19.30;99.90;;;;;;5035659;28;20049;-66
2022/06/30 01:52:38;;;;;;;8.32;4.47;;;19.60;99.90;;;;;;5053693;28;20337;-66
2022/06/30 01:55:06;;;;;;;5.90;4.30;;;19.40;99.90;;;;;;5053669;28;20464;-65
2022/06/30 01:57:33;;;;;;;10.30;4.35;;;18.80;99.90;;;;;;5053433;28;20060;-66
2022/06/30 01:59:58;;;;;;;8.32;4.60;;;19.20;99.90;;;;;;5053413;28;20045;-66
2022/06/30 02:02:24;;;;;;;8.43;4.63;;;19.00;99.90;;;;;;5053230;28;20052;-66
2022/06/30 02:04:51;;;;;;;6.72;4.50;;;19.30;99.90;;;;;;5053716;28;20048;-66
2022/06/30 02:07:21;;;;;;;8.38;4.22;;;19.40;99.90;;;;;;5053255;28;20500;-66
2022/06/30 02:09:51;;;;;;;11.73;4.50;;;19.40;99.90;;;;;;5039191;28;20041;-66
2022/06/30 02:15:07;;;;;;;5.78;4.30;;;18.90;99.90;;;;;;5015483;28;20050;-65
2022/06/30 02:17:33;;;;;;;6.95;4.13;;;19.00;99.90;;;;;;5033556;28;20057;-67
2022/06/30 02:20:00;;;;;;;7.47;4.50;;;19.10;99.90;;;;;;5015504;28;20060;-65
2022/06/30 02:22:26;;;;;;;5.13;4.13;;;;;;;;;;5032872;28;20088;-66
2022/06/30 02:24:52;;;;;;;6.05;4.30;;;19.20;99.90;;;;;;5033575;28;20565;-66
2022/06/30 02:27:20;;;;;;;6.18;4.18;;;18.90;99.90;;;;;;5032873;28;20053;-66
2022/06/30 02:29:54;;;;;;;6.50;3.95;;;19.50;99.90;;;;;;5032704;28;20119;-65
2022/06/30 02:32:21;;;;;;;5.88;4.30;;;19.00;99.90;;;;;;5032793;28;20455;-66
2022/06/30 02:34:48;;;;;;;6.40;4.30;;;19.10;99.90;;;;;;5032825;28;20049;-65
2022/06/30 02:37:14;;;;;;;7.30;4.30;;;18.90;99.90;;;;;;5032713;28;20659;-66
2022/06/30 02:39:40;;;;;;;7.13;4.20;;;19.00;99.90;;;;;;5015207;28;20133;-66
2022/06/30 02:42:06;;;;;;;10.07;4.38;;;18.50;99.90;;;;;;5032415;28;20350;-65
2022/06/30 02:44:31;;;;;;;5.38;4.10;;;18.90;99.90;;;;;;5032841;28;20496;-66
2022/06/30 02:46:57;;;;;;;12.52;4.13;;;18.80;99.90;;;;;;5033039;28;20461;-65
2022/06/30 02:49:23;;;;;;;7.22;4.50;;;18.50;99.90;;;;;;5014927;28;20049;-67
2022/06/30 02:51:50;;;;;;;7.15;4.15;;;19.10;99.90;;;;;;5032507;28;20093;-66
2022/06/30 02:54:22;;;;;;;8.18;4.30;;;18.60;99.90;;;;;;5032475;28;20045;-66
2022/06/30 02:56:49;;;;;;;8.93;4.20;;;18.90;99.90;;;;;;5032763;28;20487;-66
2022/06/30 02:59:15;;;;;;;5.93;4.00;;;18.70;99.90;;;;;;5032771;28;20049;-65
2022/06/30 03:01:40;;;;;;;9.27;4.30;;;18.80;99.90;;;;;;5031066;28;20046;-65
2022/06/30 03:04:06;;;;;;;6.35;4.15;;;;;;;;;;5032291;28;20052;-65
2022/06/30 03:06:33;;;;;;;5.00;4.38;;;18.60;99.90;;;;;;5032138;28;20057;-65
2022/06/30 03:09:00;;;;;;;6.15;4.22;;;18.90;99.90;;;;;;5032337;28;20053;-65
2022/06/30 03:11:27;;;;;;;7.43;4.45;;;18.50;99.90;;;;;;5032466;28;20056;-65
2022/06/30 03:13:53;;;;;;;11.98;5.20;;;18.50;99.90;;;;;;5032228;28;20088;-65
2022/06/30 03:16:19;;;;;;;8.35;4.35;;;18.70;99.90;;;;;;5031989;28;20128;-65
2022/06/30 03:18:45;;;;;;;9.32;4.50;;;18.50;99.90;;;;;;5031997;28;20128;-65
2022/06/30 03:21:11;;;;;;;7.20;4.57;;;18.20;99.90;;;;;;5031972;28;20053;-65
2022/06/30 03:23:38;;;;;;;8.15;4.40;;;18.10;99.90;;;;;;5031910;28;20392;-65
2022/06/30 03:26:06;;;;;;;7.65;4.38;;;18.10;99.90;;;;;;5031741;28;20061;-65
2022/06/30 03:28:32;;;;;;;6.63;4.15;;;18.30;99.90;;;;;;5031909;28;20081;-65
2022/06/30 03:31:01;;;;;;;7.28;4.55;;;18.40;99.90;;;;;;5032012;28;20041;-65
2022/06/30 03:33:27;;;;;;;9.63;4.57;;;18.10;99.90;;;;;;5031661;28;20048;-65
2022/06/30 03:35:53;;;;;;;9.60;4.57;;;18.40;99.90;;;;;;5031574;28;20064;-65
2022/06/30 03:38:19;;;;;;;9.85;4.63;;;18.40;99.90;;;;;;5013944;28;20049;-65
2022/06/30 03:40:45;;;;;;;10.95;4.75;;;18.30;99.90;;;;;;5031821;28;20045;-65
2022/06/30 03:43:11;;;;;;;8.30;4.28;;;18.20;99.90;;;;;;5031574;28;20046;-65
2022/06/30 03:45:37;;;;;;;9.25;4.68;;;18.30;99.90;;;;;;5031493;28;20053;-65
2022/06/30 03:48:05;;;;;;;6.18;4.40;;;18.20;99.90;;;;;;5013914;28;20128;-65
2022/06/30 03:50:34;;;;;;;5.80;4.85;;;18.30;99.90;;;;;;5031570;28;20558;-66
2022/06/30 03:53:01;;;;;;;7.68;4.68;;;18.10;99.90;;;;;;5031521;28;20050;-65
2022/06/30 03:55:27;;;;;;;8.55;4.65;;;18.50;99.90;;;;;;5029569;28;20053;-65
2022/06/30 03:57:53;;;;;;;7.65;4.70;;;18.40;99.90;;;;;;5031529;28;20041;-65
2022/06/30 04:00:20;;;;;;;9.52;4.63;;;18.90;99.90;;;;;;5031654;28;20053;-65
2022/06/30 04:02:46;;;;;;;6.65;4.90;;;18.50;99.90;;;;;;5031323;28;20053;-65
2022/06/30 04:05:12;;;;;;;7.03;4.60;;;18.80;99.90;;;;;;5031193;28;20046;-65
2022/06/30 04:07:41;;;;;;;6.85;4.68;;;18.60;99.90;;;;;;5031306;28;20049;-65
2022/06/30 04:10:09;;;;;;;9.60;4.50;;;19.10;99.90;;;;;;5031418;28;20049;-66
2022/06/30 04:12:34;;;;;;;7.07;4.60;;;19.20;99.90;;;;;;5031550;28;20397;-65
2022/06/30 04:15:00;;;;;;;7.75;4.65;;;19.40;99.90;;;;;;5013691;28;20049;-66
2022/06/30 04:17:27;;;;;;;8.23;4.53;;;19.30;99.90;;;;;;5031278;28;20049;-65
2022/06/30 04:19:53;;;;;;;9.63;4.60;;;18.80;99.90;;;;;;5031017;28;20524;-65
2022/06/30 04:22:18;;;;;;;7.82;4.38;;;19.30;99.90;;;;;;5031711;28;20085;-65
2022/06/30 04:24:44;;;;;;;6.72;4.72;;;19.10;99.90;;;;;;5031219;28;20053;-64
2022/06/30 04:27:17;;;;;;;6.60;4.40;;;19.10;99.90;;;;;;5030950;28;20054;-65
2022/06/30 04:29:43;;;;;;;6.53;4.65;;;19.30;99.90;;;;;;5031201;28;20045;-65
2022/06/30 04:35:12;;;;;;;14.40;5.00;;;19.40;99.90;;;;;;4969963;28;20134;-65
2022/06/30 04:37:38;;;;;;;6.00;4.35;;;20.70;99.90;;;;;;4969884;28;20101;-64
2022/06/30 04:42:50;;;;;;;9.20;4.40;;;21.90;99.90;;;;;;4953612;28;20057;-65
2022/06/30 04:45:16;;;;;;;7.35;4.32;;;22.30;99.90;;;;;;4970179;28;20409;-65
2022/06/30 04:47:41;;;;;;;9.20;4.40;;;23.50;99.90;;;;;;4969898;28;20134;-66
2022/06/30 04:50:10;;;;;;;10.40;4.57;;;23.60;99.90;;;;;;4969743;28;20069;-65
2022/06/30 04:52:36;;;;;;;7.75;4.40;;;24.30;99.90;;;;;;4969865;28;20061;-65
2022/06/30 04:55:03;;;;;;;7.20;4.40;;;24.90;96.70;;;;;;4969705;28;20042;-65
2022/06/30 04:57:29;;;;;;;5.30;4.28;;;25.20;99.90;;;;;;4969772;28;20055;-64
2022/06/30 04:59:54;;;;;;;5.80;4.30;;;24.90;95.60;;;;;;4953637;28;20470;-65
2022/06/30 05:02:20;;;;;;;6.57;4.10;;;24.70;95.50;;;;;;4969518;28;20110;-65
2022/06/30 05:04:46;;;;;;;6.20;4.00;;;23.90;99.80;;;;;;4969408;28;20529;-65
2022/06/30 05:07:13;;;;;;;6.72;4.70;;;24.10;97.20;;;;;;4973158;28;20060;-65
2022/06/30 05:09:39;;;;;;;5.72;4.40;;;24.00;97.40;;;;;;4983087;28;20069;-65
2022/06/30 05:12:05;;;;;;;9.35;4.70;;;23.20;99.90;;;;;;5016407;28;20546;-65
2022/06/30 05:14:31;;;;;;;7.68;4.65;;;23.60;99.90;;;;;;5034460;28;20040;-65
2022/06/30 05:16:57;;;;;;;6.15;4.35;;;23.50;99.90;;;;;;5034614;28;20045;-65
2022/06/30 05:19:22;;;;;;;6.82;4.50;;;23.70;99.90;;;;;;5034332;28;20523;-65
2022/06/30 05:21:48;;;;;;;6.40;4.13;;;23.80;98.40;;;;;;5016481;28;20065;-65
2022/06/30 05:26:58;;;;;;;7.68;4.50;;;24.50;99.90;;;;;;5034456;28;20083;-65
2022/06/30 05:29:23;;;;;;;8.20;4.18;;;24.40;99.90;;;;;;5034408;28;20453;-64
2022/06/30 05:31:49;;;;;;;8.50;4.60;;;25.80;97.50;;;;;;5034110;28;20124;-65
2022/06/30 05:34:15;;;;;;;8.00;4.47;;;26.00;92.10;;;;;;5051828;28;20064;-65
2022/06/30 05:36:40;;;;;;;11.52;4.97;;;26.70;88.90;;;;;;5068278;28;20110;-66
2022/06/30 05:39:06;;;;;;;6.88;4.35;;;27.30;83.40;;;;;;5057365;28;20080;-66
2022/06/30 05:41:32;;;;;;;4.97;4.28;;;28.30;83.00;;;;;;5051906;28;20562;-65
2022/06/30 05:43:57;;;;;;;6.05;4.30;;;28.30;74.90;;;;;;5049915;28;20049;-65
2022/06/30 05:46:23;;;;;;;7.80;4.50;;;28.70;72.40;;;;;;5017346;28;20057;-65
2022/06/30 05:48:49;;;;;;;7.13;4.10;;;29.20;77.10;;;;;;5031819;28;20556;-65
2022/06/30 05:51:15;;;;;;;9.57;4.20;;;29.90;73.10;;;;;;5052829;28;20045;-65
2022/06/30 05:53:40;;;;;;;7.07;4.40;;;29.80;65.00;;;;;;5051903;28;20044;-65
2022/06/30 05:56:06;;;;;;;6.95;4.32;;;30.20;69.10;;;;;;5052306;28;20132;-65
2022/06/30 05:58:32;;;;;;;6.72;4.25;;;30.70;70.90;;;;;;5059439;28;20060;-64
2022/06/30 06:00:58;;;;;;;8.43;4.32;;;30.70;68.30;;;;;;5064001;28;20525;-65
2022/06/30 06:03:23;;;;;;;8.75;4.13;;;30.40;66.10;;;;;;5058256;28;20571;-64
2022/06/30 06:05:49;;;;;;;6.07;4.32;;;30.20;65.40;;;;;;5051406;28;20076;-65
2022/06/30 06:08:15;;;;;;;8.65;4.80;;;30.20;59.40;;;;;;5050880;28;20064;-65
2022/06/30 06:10:41;;;;;;;5.03;4.10;;;30.00;66.50;;;;;;5033009;28;20056;-65
2022/06/30 06:13:07;;;;;;;6.43;4.30;;;30.30;59.30;;;;;;5032801;28;20136;-65
2022/06/30 06:15:35;;;;;;;9.50;4.65;;;30.50;58.90;;;;;;5050869;28;20245;-65
2022/06/30 06:18:01;;;;;;;5.70;3.95;;;30.60;63.50;;;;;;5051637;28;20124;-65
2022/06/30 06:20:27;;;;;;;8.48;4.40;;;30.80;65.80;;;;;;5051115;28;20048;-65
2022/06/30 06:22:53;;;;;;;5.28;4.40;;;31.00;57.50;;;;;;5051588;28;20094;-65
2022/06/30 06:25:22;;;;;;;5.60;4.20;;;30.70;62.90;;;;;;5033501;28;20072;-65
2022/06/30 06:30:33;;;;;;;6.07;4.25;;;31.60;55.70;;;;;;5052561;28;20077;-65
2022/06/30 06:32:59;;;;;;;5.40;4.28;;;32.10;54.80;;;;;;5051513;28;20045;-66
2022/06/30 06:35:26;;;;;;;8.02;4.45;;;32.30;54.30;;;;;;5050842;28;20055;-65
2022/06/30 06:37:51;;;;;;;6.78;4.40;;;32.70;53.80;;;;;;5050522;28;20036;-66
2022/06/30 06:40:17;;;;;;;6.90;4.78;;;33.20;52.80;;;;;;5033785;28;20387;-65
2022/06/30 06:42:43;;;;;;;6.72;4.43;;;33.60;56.30;;;;;;5051509;28;20036;-65
2022/06/30 06:45:09;;;;;;;9.77;4.90;;;33.30;51.50;;;;;;5033109;28;20064;-66
2022/06/30 06:47:34;;;;;;;10.10;4.43;;;32.90;56.00;;;;;;5051019;28;20451;-65
2022/06/30 06:50:00;;;;;;;8.15;4.82;;;33.20;51.40;;;;;;5051716;28;20056;-71
2022/06/30 06:52:27;;;;;;;11.48;4.35;;;33.30;51.20;;;;;;5051585;28;20037;-69
2022/06/30 06:54:53;;;;;;;8.00;5.05;;;33.40;56.70;;;;;;5033131;28;20051;-69
2022/06/30 06:57:18;;;;;;;6.97;4.30;;;33.10;50.80;;;;;;5051076;28;20052;-68
2022/06/30 06:59:44;;;;;;;13.63;4.82;;;33.00;51.70;;;;;;5050987;28;20391;-64
2022/06/30 07:02:10;;;;;;;7.75;4.40;;;33.00;51.70;;;;;;5050748;28;20049;-66
2022/06/30 07:04:35;;;;;;;6.43;4.70;;;32.70;57.80;;;;;;5046314;28;20076;-69
2022/06/30 07:07:02;;;;;;;15.32;4.85;;;32.90;58.50;;;;;;5037069;28;20048;-69
2022/06/30 07:09:28;;;;;;;7.97;4.88;;;32.80;52.70;;;;;;5050441;28;20049;-69
2022/06/30 07:11:54;;;;;;;5.88;4.75;;;32.80;53.00;;;;;;5050960;28;20583;-65
2022/06/30 07:14:20;;;;;;;6.20;4.18;;;32.50;53.60;;;;;;5042507;28;20120;-66
2022/06/30 07:16:45;;;;;;;13.43;5.35;;;32.40;54.60;;;;;;5022321;28;20053;-66
2022/06/30 07:19:11;;;;;;;10.05;4.90;;;32.10;55.30;;;;;;5049546;28;20472;-66
2022/06/30 07:21:37;;;;;;;5.63;4.82;;;31.50;64.80;;;;;;5049902;28;20090;-66
2022/06/30 07:24:02;;;;;;;7.03;5.50;;;31.40;57.50;;;;;;5049350;28;20041;-66
2022/06/30 07:26:28;;;;;;;8.10;4.85;;;31.20;58.40;;;;;;5049713;28;20324;-66
2022/06/30 07:28:54;;;;;;;10.73;5.20;;;31.20;58.90;;;;;;5048800;28;20045;-65
2022/06/30 07:31:20;;;;;;;6.85;5.28;;;31.20;59.40;;;;;;5049720;28;20557;-66
2022/06/30 07:33:46;;;;;;;7.85;5.03;;;31.20;59.40;;;;;;5049577;28;20061;-66
2022/06/30 07:36:15;;;;;;;6.43;5.10;;;30.80;66.20;;;;;;5046796;28;20511;-66
2022/06/30 07:38:43;;;;;;;8.55;5.10;;;30.50;68.80;;;;;;5047479;28;20041;-65
2022/06/30 07:41:08;;;;;;;10.05;5.35;;;30.40;61.70;;;;;;5049709;28;20055;-66
2022/06/30 07:43:34;;;;;;;8.40;4.70;;;30.50;68.20;;;;;;5049448;28;20376;-66
2022/06/30 07:46:01;;;;;;;9.65;5.03;;;30.70;62.50;;;;;;5049042;28;20514;-66
2022/06/30 07:48:27;;;;;;;8.50;4.75;;;30.90;67.70;;;;;;5049168;28;20480;-65
2022/06/30 07:50:53;;;;;;;6.93;5.15;;;31.20;61.80;;;;;;5049106;28;20098;-65
2022/06/30 07:53:18;;;;;;;9.02;5.53;;;31.50;61.30;;;;;;5049077;28;20044;-65
2022/06/30 07:55:44;;;;;;;7.70;4.70;;;31.60;61.20;;;;;;5045853;28;20037;-62
2022/06/30 07:58:10;;;;;;;6.63;4.85;;;31.90;60.90;;;;;;5047237;28;20040;-63
2022/06/30 08:00:36;;;;;;;9.07;4.90;;;32.00;60.50;;;;;;5047524;28;20522;-64
2022/06/30 08:03:02;;;;;;;9.52;5.85;;;32.10;60.70;;;;;;5049287;28;20049;-64
2022/06/30 08:05:28;;;;;;;8.02;5.70;;;32.00;60.40;;;;;;5042432;28;20108;-65
2022/06/30 08:07:54;;;;;;;10.88;5.28;;;31.80;60.50;;;;;;5031203;28;20049;-64
2022/06/30 08:10:20;;;;;;;11.38;6.03;;;31.80;61.10;;;;;;5037376;28;20036;-64
2022/06/30 08:12:45;;;;;;;10.25;6.30;;;31.60;60.90;;;;;;5051204;28;20052;-64
2022/06/30 08:15:11;;;;;;;12.00;5.80;;;31.00;61.60;;;;;;5051048;28;20033;-64
2022/06/30 08:17:37;;;;;;;8.85;6.13;;;30.50;63.10;;;;;;5027924;28;20045;-64
2022/06/30 08:20:03;;;;;;;8.70;6.47;;;29.90;72.60;;;;;;5032855;28;20061;-63
2022/06/30 08:22:29;;;;;;;9.02;5.78;;;29.60;73.10;;;;;;5026808;28;20120;-64
2022/06/30 08:24:55;;;;;;;10.20;6.57;;;29.50;67.80;;;;;;5041800;28;20127;-64
2022/06/30 08:27:21;;;;;;;8.98;6.07;;;29.20;69.10;;;;;;5006133;28;20054;-64
2022/06/30 08:29:47;;;;;;;14.95;6.88;;;29.40;70.20;;;;;;5028752;28;20065;-64
2022/06/30 08:32:13;;;;;;;10.32;6.03;;;29.50;70.00;;;;;;5027957;28;20477;-66
2022/06/30 08:34:39;;;;;;;8.20;6.07;;;29.90;70.20;;;;;;5032223;28;20045;-66
2022/06/30 08:37:04;;;;;;;11.05;6.43;;;30.60;74.50;;;;;;5025825;28;20053;-62
2022/06/30 08:42:16;;;;;;;10.15;6.88;;;30.90;68.20;;;;;;5038319;28;20734;-64
2022/06/30 08:44:43;;;;;;;9.55;5.47;;;31.00;67.50;;;;;;5042871;28;20129;-64
2022/06/30 08:47:09;;;;;;;12.25;6.35;;;31.20;67.50;;;;;;5029556;28;20046;-64
2022/06/30 08:49:35;;;;;;;8.88;7.18;;;31.50;67.00;;;;;;5041747;28;20061;-64
2022/06/30 08:52:01;;;;;;;9.25;6.00;;;31.40;66.10;;;;;;5037715;28;20049;-65
2022/06/30 08:54:29;;;;;;;8.23;7.43;;;31.20;67.10;;;;;;5048886;28;20045;-63
2022/06/30 08:56:59;;;;;;;14.00;6.30;;;31.10;66.50;;;;;;5048923;28;20045;-64
2022/06/30 08:59:25;;;;;;;12.63;7.07;;;30.90;66.80;;;;;;5016805;28;20048;-66
2022/06/30 09:01:54;;;;;;;8.88;7.30;;;30.50;73.10;;;;;;5033995;28;20029;-65
2022/06/30 09:04:21;;;;;;;9.77;6.60;;;30.30;73.60;;;;;;5052671;28;20164;-65
2022/06/30 09:06:46;;;;;;;12.80;6.85;;;30.70;69.00;;;;;;5018759;28;20124;-66
2022/06/30 09:09:12;;;;;;;9.73;6.82;;;31.00;68.70;;;;;;5053029;28;20136;-65
2022/06/30 09:11:53;;;;;;;6.90;6.20;;;31.00;68.70;;;;;;5035051;28;20055;-64
2022/06/30 09:14:40;;;;;;;9.82;7.90;;;31.00;71.60;;;;;;5034950;28;20057;-66
2022/06/30 09:17:17;;;;;;;12.02;7.05;;;31.00;66.00;;;;;;5052946;28;20355;-65
2022/06/30 09:19:54;;;;;;;11.68;7.40;;;31.00;68.60;;;;;;5052974;28;20049;-65
2022/06/30 09:22:23;;;;;;;9.98;7.80;;;31.00;68.20;;;;;;5052695;28;20071;-66
2022/06/30 09:25:00;;;;;;;12.00;7.68;;;31.10;67.90;;;;;;5052624;28;20562;-66
2022/06/30 09:27:27;;;;;;;10.48;7.00;;;31.40;67.90;;;;;;5034954;28;20045;-66
2022/06/30 09:29:54;;;;;;;8.55;6.90;;;30.40;70.90;;;;;;5052572;28;20506;-65
2022/06/30 09:32:19;;;;;;;11.60;8.00;;;31.20;67.30;;;;;;5054239;28;20468;-66
2022/06/30 09:34:48;;;;;;;12.77;7.88;;;31.10;68.10;;;;;;5053120;28;20037;-64
2022/06/30 09:37:18;;;;;;;9.02;7.18;;;31.20;68.00;;;;;;5052563;28;20151;-64
2022/06/30 09:39:45;;;;;;;14.70;8.25;;;31.20;67.90;;;;;;5032081;28;20049;-66
2022/06/30 09:42:12;;;;;;;10.30;7.50;;;31.20;68.30;;;;;;5052838;28;20048;-65
2022/06/30 09:44:38;;;;;;;8.88;7.50;;;31.40;68.30;;;;;;5035590;28;20064;-65
2022/06/30 09:47:10;;;;;;;13.05;7.43;;;31.50;71.80;;;;;;5052290;28;20547;-66
2022/06/30 09:49:47;;;;;;;11.68;7.50;;;31.80;72.90;;;;;;5050740;28;20037;-65
2022/06/30 09:52:21;;;;;;;14.00;7.30;;;31.60;67.00;;;;;;5031309;28;20056;-64
2022/06/30 09:54:54;;;;;;;11.00;7.55;;;31.80;67.00;;;;;;5051905;28;20045;-65
2022/06/30 09:57:22;;;;;;;10.35;7.30;;;31.90;67.00;;;;;;5050372;28;20045;-65
2022/06/30 10:00:00;;;;;;;10.82;8.23;;;31.90;67.00;;;;;;5052597;28;20080;-65
2022/06/30 10:02:31;;;;;;;11.68;7.80;;;31.90;66.20;;;;;;5057621;28;20519;-65
2022/06/30 10:04:57;;;;;;;12.07;7.60;;;31.70;70.00;;;;;;5055194;28;20041;-66
2022/06/30 10:07:23;;;;;;;11.18;7.28;;;31.80;67.40;;;;;;5052222;28;20056;-66
2022/06/30 10:09:51;;;;;;;9.07;7.45;;;31.80;67.80;;;;;;5051974;28;20040;-66
2022/06/30 10:12:23;;;;;;;9.95;7.63;;;31.50;71.80;;;;;;5052343;28;20056;-66
2022/06/30 10:14:50;;;;;;;10.65;8.77;;;31.60;67.20;;;;;;5052024;28;20044;-70
2022/06/30 10:17:30;;;;;;;12.80;7.28;;;31.50;67.50;;;;;;5035667;28;20110;-70
2022/06/30 10:19:56;;;;;;;10.55;7.38;;;31.30;67.80;;;;;;5046684;28;20037;-70
2022/06/30 10:22:24;;;;;;;9.75;7.78;;;31.10;69.40;;;;;;5050603;28;20450;-70
2022/06/30 10:24:52;;;;;;;8.05;7.10;;;30.90;69.80;;;;;;5050723;28;20480;-70
2022/06/30 10:27:19;;;;;;;11.18;7.60;;;30.80;70.30;;;;;;5050691;28;20543;-70
2022/06/30 10:30:12;;;;;;;12.02;7.63;;;30.80;71.10;;;;;;5050973;28;20048;-69
2022/06/30 10:32:53;;;;;;;8.77;7.88;;;31.00;73.20;;;;;;5032850;28;20124;-69
2022/06/30 10:35:28;;;;;;;13.80;7.95;;;31.20;73.10;;;;;;5050490;28;20099;-70
2022/06/30 10:38:00;;;;;;;9.50;8.50;;;31.30;72.50;;;;;;5051027;28;20132;-70
2022/06/30 10:41:06;;;;;;;12.98;7.63;;;31.30;71.20;;;;;;5050677;28;20207;-69
2022/06/30 10:43:32;;;;;;;10.93;7.30;;;31.50;70.30;;;;;;5050986;28;20063;-69
2022/06/30 10:46:02;;;;;;;11.82;7.65;;;31.60;68.40;;;;;;5016308;28;20052;-70
2022/06/30 10:48:50;;;;;;;13.02;6.68;;;31.80;67.10;;;;;;5032227;28;20103;-70
2022/06/30 10:51:16;;;;;;;7.97;7.18;;;31.90;66.20;;;;;;5050687;28;20105;-68
2022/06/30 10:53:42;;;;;;;9.45;7.20;;;31.80;65.40;;;;;;5050637;28;20488;-69
2022/06/30 10:56:08;;;;;;;9.10;6.70;;;31.60;65.00;;;;;;5016523;28;20103;-70
2022/06/30 10:58:34;;;;;;;12.32;7.18;;;31.40;66.00;;;;;;5050653;28;20043;-69
2022/06/30 11:01:04;;;;;;;18.77;7.85;;;31.20;66.30;;;;;;5050715;28;20747;-70
2022/06/30 11:03:29;;;;;;;8.00;7.20;;;30.90;66.20;;;;;;5050533;28;20049;-70
2022/06/30 11:06:02;;;;;;;8.52;7.05;;;30.50;70.80;;;;;;5050719;28;20051;-70
2022/06/30 11:08:39;;;;;;;7.63;6.82;;;30.60;70.30;;;;;;5050452;28;20045;-70
2022/06/30 11:11:20;;;;;;;11.00;6.70;;;30.60;71.90;;;;;;5049986;28;20041;-70
2022/06/30 11:13:47;;;;;;;6.78;5.53;;;30.70;66.30;;;;;;5050385;28;20048;-70
2022/06/30 11:16:17;;;;;;;8.88;5.63;;;30.90;66.50;;;;;;5050432;28;20056;-70
2022/06/30 11:18:43;;;;;;;7.90;6.07;;;31.00;62.00;;;;;;5048070;28;20535;-70
2022/06/30 11:21:09;;;;;;;7.63;5.80;;;31.10;63.00;;;;;;5032564;28;20182;-70
2022/06/30 11:23:44;;;;;;;7.18;5.10;;;31.20;63.90;;;;;;5032574;28;20135;-70
2022/06/30 11:28:57;;;;;;;9.90;5.10;;;31.60;61.10;;;;;;5050531;28;20044;-70
2022/06/30 11:31:29;;;;;;;7.45;3.80;;;31.70;60.80;;;;;;5050559;28;20033;-70
2022/06/30 11:34:08;;;;;;;8.10;3.95;;;31.80;59.40;;;;;;5050291;28;20511;-70
2022/06/30 11:36:35;;;;;;;8.55;3.78;;;32.00;58.60;;;;;;5032760;28;20044;-70
2022/06/30 11:39:14;;;;;;;8.85;3.38;;;32.10;57.90;;;;;;5032640;28;20051;-70
2022/06/30 11:42:00;;;;;;;4.57;3.20;;;32.10;56.40;;;;;;5050460;28;20045;-70
2022/06/30 11:44:32;;;;;;;5.38;3.33;;;32.20;55.60;;;;;;5032698;28;20056;-71
2022/06/30 11:47:03;;;;;;;6.28;3.88;;;32.20;55.80;;;;;;5049945;28;20040;-71
2022/06/30 11:49:41;;;;;;;11.00;4.10;;;32.30;57.00;;;;;;5032524;28;20083;-70
2022/06/30 11:52:20;;;;;;;7.25;3.80;;;32.40;57.20;;;;;;5050150;28;20397;-70
2022/06/30 11:54:57;;;;;;;10.93;3.70;;;30.70;55.50;;;;;;5049213;28;20036;-70
2022/06/30 11:57:28;;;;;;;7.95;3.50;;;32.50;56.60;;;;;;5043281;28;20138;-70
2022/06/30 12:00:06;;;;;;;5.88;3.28;;;32.50;56.40;;;;;;5045341;28;20088;-71
2022/06/30 12:02:33;;;;;;;4.28;3.30;;;32.60;54.40;;;;;;5048896;28;20099;-70
2022/06/30 12:05:02;;;;;;;7.68;3.30;;;32.60;55.00;;;;;;5049996;28;20515;-67
2022/06/30 12:07:29;;;;;;;7.80;3.30;;;32.70;54.40;;;;;;5049068;28;20047;-66
2022/06/30 12:09:56;;;;;;;7.75;3.17;;;32.80;53.80;;;;;;5049925;28;20120;-66
2022/06/30 12:12:33;;;;;;;10.88;3.60;;;32.80;53.70;;;;;;5047024;28;20045;-66
2022/06/30 12:15:01;;;;;;;4.40;3.50;;;32.80;54.20;;;;;;5011589;28;20499;-66
2022/06/30 12:17:32;;;;;;;6.43;3.60;;;32.80;55.10;;;;;;5050506;28;20527;-67
2022/06/30 12:19:58;;;;;;;6.15;3.50;;;32.30;57.00;;;;;;5052866;28;20120;-66
2022/06/30 12:22:25;;;;;;;7.80;4.10;;;33.00;55.20;;;;;;5054497;28;20464;-66
2022/06/30 12:24:53;;;;;;;7.57;3.83;;;33.00;54.60;;;;;;5052492;28;20199;-67
2022/06/30 12:27:31;;;;;;;5.72;3.75;;;33.00;55.00;;;;;;5057414;28;20110;-67
2022/06/30 12:30:04;;;;;;;9.73;3.90;;;33.00;55.10;;;;;;5056712;28;20045;-67
2022/06/30 12:32:30;;;;;;;8.98;4.18;;;33.10;55.00;;;;;;5056828;28;20192;-68
2022/06/30 12:35:00;;;;;;;9.07;4.00;;;33.20;55.50;;;;;;5056340;28;20466;-67
2022/06/30 12:37:32;;;;;;;9.10;4.10;;;33.30;56.10;;;;;;5022031;28;20052;-66
2022/06/30 12:40:00;;;;;;;12.00;4.22;;;33.40;56.30;;;;;;5038298;28;20511;-66
2022/06/30 12:42:37;;;;;;;6.07;4.07;;;33.40;54.80;;;;;;5056696;28;20049;-66
2022/06/30 12:45:03;;;;;;;7.13;4.13;;;33.40;55.10;;;;;;5053816;28;20119;-66
2022/06/30 12:47:33;;;;;;;11.10;4.70;;;33.40;55.20;;;;;;5056199;28;20484;-66
2022/06/30 12:50:19;;;;;;;7.00;4.25;;;33.40;54.50;;;;;;5056335;28;20047;-68
2022/06/30 12:52:45;;;;;;;12.55;4.43;;;33.40;53.70;;;;;;5056283;28;20040;-67
2022/06/30 12:55:11;;;;;;;11.57;3.80;;;33.40;53.70;;;;;;5056415;28;20488;-67
2022/06/30 12:57:36;;;;;;;9.18;4.28;;;33.40;54.10;;;;;;5055943;28;20045;-67
2022/06/30 13:00:04;;;;;;;8.60;3.90;;;33.50;53.90;;;;;;5056543;28;20043;-67
2022/06/30 13:02:39;;;;;;;7.75;3.90;;;33.60;53.60;;;;;;5054966;28;20061;-67
2022/06/30 13:05:10;;;;;;;7.43;4.00;;;33.70;53.40;;;;;;5055507;28;20059;-67
2022/06/30 13:07:36;;;;;;;8.65;4.05;;;33.70;52.30;;;;;;5055163;28;20041;-67
2022/06/30 13:10:03;;;;;;;6.05;3.83;;;33.60;52.30;;;;;;5039073;28;20476;-67
2022/06/30 13:12:29;;;;;;;7.00;3.78;;;33.50;52.70;;;;;;5059770;28;20136;-67